createdAt,value
2023-04-03T00:01:37.721Z,2.50
2023-04-03T00:04:23.662Z,4.40
2023-04-03T00:06:50.424Z,7.33
2023-04-03T00:09:17.113Z,5.63
2023-04-03T00:11:43.844Z,6.50
2023-04-03T00:14:10.785Z,7.23
2023-04-03T00:16:37.558Z,9.70
2023-04-03T00:19:04.374Z,8.93
2023-04-03T00:21:31.639Z,9.47
2023-04-03T00:23:58.475Z,7.17
2023-04-03T00:26:25.676Z,8.63
2023-04-03T00:28:52.508Z,3.93
2023-04-03T00:31:19.333Z,9.93
2023-04-03T00:33:46.179Z,7.77
2023-04-03T00:36:13.612Z,5.83
2023-04-03T00:38:40.806Z,5.97
2023-04-03T00:41:08.142Z,6.93
2023-04-03T00:43:35.240Z,4.47
2023-04-03T00:46:02.126Z,10.00
2023-04-03T00:48:35.681Z,5.10
2023-04-03T00:51:07.229Z,6.10
2023-04-03T00:53:51.786Z,5.80
2023-04-03T00:56:22.784Z,5.10
2023-04-03T00:59:02.647Z,8.90
2023-04-03T01:01:29.940Z,7.80
2023-04-03T01:03:56.895Z,7.30
2023-04-03T01:06:32.006Z,6.30
2023-04-03T01:09:17.480Z,7.50
2023-04-03T01:11:44.419Z,7.87
2023-04-03T01:14:11.221Z,7.20
2023-04-03T01:16:38.055Z,8.93
2023-04-03T01:19:09.427Z,5.17
2023-04-03T01:22:13.940Z,8.00
2023-04-03T01:24:40.825Z,3.63
2023-04-03T01:27:13.072Z,7.03
2023-04-03T01:29:41.485Z,1.43
2023-04-03T01:32:08.275Z,4.63
2023-04-03T01:34:35.187Z,5.97
2023-04-03T01:37:02.004Z,8.17
2023-04-03T01:39:28.782Z,4.37
2023-04-03T01:41:56.048Z,8.17
2023-04-03T01:44:41.403Z,5.87
2023-04-03T01:47:09.273Z,5.53
2023-04-03T01:49:37.360Z,6.07
2023-04-03T01:52:04.375Z,6.87
2023-04-03T01:54:31.112Z,5.63
2023-04-03T01:56:57.990Z,3.03
2023-04-03T01:59:24.951Z,6.83
2023-04-03T02:01:52.630Z,3.93
2023-04-03T02:04:19.361Z,8.20
2023-04-03T02:06:46.401Z,7.17
2023-04-03T02:09:13.563Z,5.50
2023-04-03T02:11:40.413Z,4.13
2023-04-03T02:14:07.477Z,6.77
2023-04-03T02:16:34.581Z,9.23
2023-04-03T02:19:01.407Z,11.60
2023-04-03T02:21:28.953Z,7.40
2023-04-03T02:23:55.849Z,12.37
2023-04-03T02:26:22.897Z,8.03
2023-04-03T02:28:49.650Z,7.40
2023-04-03T02:31:16.730Z,5.77
2023-04-03T02:33:46.166Z,6.53
2023-04-03T02:36:15.316Z,4.17
2023-04-03T02:38:45.005Z,4.77
2023-04-03T02:41:12.829Z,8.37
2023-04-03T02:43:40.906Z,5.20
2023-04-03T02:46:08.262Z,9.10
2023-04-03T02:48:36.303Z,5.33
2023-04-03T02:51:03.444Z,9.63
2023-04-03T02:56:19.296Z,6.93
2023-04-03T02:58:46.241Z,7.93
2023-04-03T03:01:13.569Z,4.20
2023-04-03T03:03:41.124Z,9.77
2023-04-03T03:06:11.302Z,3.57
2023-04-03T03:08:40.994Z,7.83
2023-04-03T03:13:53.655Z,10.40
2023-04-03T03:16:20.857Z,8.77
2023-04-03T03:18:47.891Z,6.77
2023-04-03T03:21:15.132Z,7.07
2023-04-03T03:23:41.972Z,7.70
2023-04-03T03:26:11.606Z,6.67
2023-04-03T03:28:40.109Z,6.37
2023-04-03T03:31:08.363Z,10.13
2023-04-03T03:33:37.306Z,3.07
2023-04-03T03:36:04.260Z,4.90
2023-04-03T03:38:31.543Z,8.33
2023-04-03T03:41:00.107Z,8.83
2023-04-03T03:43:28.469Z,7.90
2023-04-03T03:45:56.460Z,3.30
2023-04-03T03:48:24.924Z,9.00
2023-04-03T03:50:52.169Z,6.37
2023-04-03T03:53:22.736Z,4.90
2023-04-03T03:55:52.989Z,6.07
2023-04-03T03:58:22.197Z,6.53
2023-04-03T04:00:49.018Z,4.50
2023-04-03T04:03:16.178Z,3.13
2023-04-03T04:05:45.998Z,7.17
2023-04-03T04:08:12.802Z,10.30
2023-04-03T04:10:39.840Z,8.07
2023-04-03T04:13:07.859Z,5.27
2023-04-03T04:15:35.394Z,7.17
2023-04-03T04:18:03.296Z,4.00
2023-04-03T04:20:30.868Z,6.83
2023-04-03T04:22:57.724Z,5.97
2023-04-03T04:25:25.532Z,4.43
2023-04-03T04:27:52.555Z,6.90
2023-04-03T04:30:19.374Z,13.53
2023-04-03T04:32:48.841Z,4.47
2023-04-03T04:35:16.877Z,3.07
2023-04-03T04:37:46.617Z,4.00
2023-04-03T04:40:14.115Z,4.10
2023-04-03T04:42:41.253Z,8.80
2023-04-03T04:45:26.411Z,4.67
2023-04-03T04:47:56.898Z,4.47
2023-04-03T04:50:25.325Z,4.77
2023-04-03T04:52:53.296Z,8.73
2023-04-03T04:55:20.202Z,10.17
2023-04-03T04:57:47.174Z,4.20
2023-04-03T05:00:14.821Z,8.17
2023-04-03T05:02:41.685Z,11.60
2023-04-03T05:05:09.253Z,7.50
2023-04-03T05:07:54.751Z,11.40
2023-04-03T05:10:21.929Z,5.30
2023-04-03T05:12:48.748Z,4.07
2023-04-03T05:15:15.686Z,6.43
2023-04-03T05:17:44.335Z,7.17
2023-04-03T05:20:14.024Z,4.13
2023-04-03T05:22:42.453Z,2.90
2023-04-03T05:25:10.677Z,2.80
2023-04-03T05:27:38.696Z,9.63
2023-04-03T05:30:06.281Z,3.03
2023-04-03T05:32:34.934Z,6.13
2023-04-03T05:35:24.406Z,3.47
2023-04-03T05:37:54.875Z,5.90
2023-04-03T05:40:22.541Z,5.60
2023-04-03T05:42:52.624Z,5.97
2023-04-03T05:45:20.827Z,7.40
2023-04-03T05:50:32.788Z,6.53
2023-04-03T05:53:00.366Z,10.40
2023-04-03T05:55:29.977Z,3.87
2023-04-03T05:57:57.536Z,7.77
2023-04-03T06:00:24.890Z,3.90
2023-04-03T06:03:01.030Z,2.90
2023-04-03T06:05:28.873Z,4.93
2023-04-03T06:07:55.596Z,3.87
2023-04-03T06:10:22.538Z,7.30
2023-04-03T06:13:09.395Z,3.13
2023-04-03T06:15:36.141Z,8.10
2023-04-03T06:18:02.972Z,5.40
2023-04-03T06:20:29.784Z,4.13
2023-04-03T06:22:56.627Z,5.20
2023-04-03T06:25:23.544Z,8.50
2023-04-03T06:27:50.398Z,6.07
2023-04-03T06:30:17.431Z,3.50
2023-04-03T06:32:44.268Z,6.60
2023-04-03T06:35:11.703Z,7.90
2023-04-03T06:37:38.526Z,3.43
2023-04-03T06:40:06.481Z,5.93
2023-04-03T06:42:33.307Z,5.80
2023-04-03T06:45:08.850Z,12.20
2023-04-03T06:47:35.823Z,12.37
2023-04-03T06:50:02.629Z,3.37
2023-04-03T06:52:29.464Z,4.30
2023-04-03T06:54:58.756Z,5.83
2023-04-03T06:57:26.159Z,15.13
2023-04-03T07:00:12.172Z,8.77
2023-04-03T07:02:39.042Z,7.13
2023-04-03T07:05:07.078Z,6.47
2023-04-03T07:07:35.128Z,6.10
2023-04-03T07:10:02.238Z,6.87
2023-04-03T07:12:47.872Z,6.00
2023-04-03T07:15:15.554Z,8.87
2023-04-03T07:17:42.529Z,7.33
2023-04-03T07:20:09.976Z,7.13
2023-04-03T07:22:36.695Z,4.67
2023-04-03T07:25:04.228Z,3.27
2023-04-03T07:27:31.158Z,4.13
2023-04-03T07:29:57.940Z,5.30
2023-04-03T07:32:24.909Z,9.37
2023-04-03T07:34:52.296Z,5.93
2023-04-03T07:37:37.545Z,6.47
2023-04-03T07:40:05.281Z,4.43
2023-04-03T07:42:51.255Z,6.27
2023-04-03T07:45:18.506Z,7.33
2023-04-03T07:47:45.255Z,5.27
2023-04-03T07:50:12.041Z,7.07
2023-04-03T07:52:57.169Z,8.93
2023-04-03T07:55:24.006Z,8.73
2023-04-03T07:57:50.729Z,4.37
2023-04-03T08:00:18.856Z,11.87
2023-04-03T08:02:45.826Z,8.80
2023-04-03T08:05:12.663Z,2.47
2023-04-03T08:07:39.581Z,5.73
2023-04-03T08:10:06.929Z,5.97
2023-04-03T08:12:33.628Z,14.07
2023-04-03T08:15:02.239Z,6.97
2023-04-03T08:17:30.605Z,4.13
2023-04-03T08:19:57.560Z,3.60
2023-04-03T08:22:24.303Z,9.47
2023-04-03T08:24:58.643Z,6.40
2023-04-03T08:27:45.444Z,7.73
2023-04-03T08:30:13.065Z,2.03
2023-04-03T08:32:40.119Z,5.47
2023-04-03T08:35:07.171Z,8.33
2023-04-03T08:37:37.092Z,4.27
2023-04-03T08:40:13.723Z,7.07
2023-04-03T08:42:55.690Z,6.77
2023-04-03T08:45:37.897Z,4.03
2023-04-03T08:48:15.605Z,4.33
2023-04-03T08:50:47.548Z,3.87
2023-04-03T08:53:22.466Z,7.87
2023-04-03T08:55:54.409Z,6.90
2023-04-03T08:58:52.587Z,5.60
2023-04-03T09:01:41.953Z,4.27
2023-04-03T09:04:20.453Z,4.75
2023-04-03T09:06:53.747Z,10.67
2023-04-03T09:09:31.400Z,4.87
2023-04-03T09:12:27.661Z,3.93
2023-04-03T09:15:12.231Z,4.88
2023-04-03T09:17:45.018Z,6.23
2023-04-03T09:20:20.367Z,6.50
2023-04-03T09:22:52.198Z,6.07
2023-04-03T09:25:22.926Z,8.30
2023-04-03T09:27:50.715Z,9.23
2023-04-03T09:30:24.481Z,4.67
2023-04-03T09:32:57.100Z,8.40
2023-04-03T09:35:36.404Z,6.67
2023-04-03T09:38:11.248Z,7.57
2023-04-03T09:40:49.247Z,5.83
2023-04-03T09:43:18.980Z,6.97
2023-04-03T09:45:47.634Z,4.93
2023-04-03T09:48:16.305Z,6.40
2023-04-03T09:50:49.973Z,8.90
2023-04-03T09:53:34.533Z,6.57
2023-04-03T09:56:04.423Z,8.43
2023-04-03T09:58:49.842Z,4.73
2023-04-03T10:01:38.003Z,8.03
2023-04-03T10:04:20.085Z,12.30
2023-04-03T10:06:55.120Z,10.50
2023-04-03T10:09:24.793Z,8.17
2023-04-03T10:12:05.771Z,7.63
2023-04-03T10:14:35.641Z,2.80
2023-04-03T10:17:20.728Z,10.47
2023-04-03T10:20:04.581Z,6.33
2023-04-03T10:23:03.536Z,15.97
2023-04-03T10:26:29.634Z,14.27
2023-04-03T10:29:21.449Z,7.27
2023-04-03T10:32:19.066Z,7.90
2023-04-03T10:34:55.033Z,9.83
2023-04-03T10:37:48.900Z,6.40
2023-04-03T10:40:34.540Z,7.90
2023-04-03T10:43:41.742Z,8.57
2023-04-03T10:46:17.656Z,8.57
2023-04-03T10:48:53.764Z,6.20
2023-04-03T10:51:39.127Z,8.25
2023-04-03T10:54:32.237Z,6.38
2023-04-03T10:57:13.170Z,7.22
2023-04-03T10:59:52.580Z,9.50
2023-04-03T11:02:31.613Z,5.35
2023-04-03T11:05:06.196Z,5.30
2023-04-03T11:07:44.297Z,8.47
2023-04-03T11:10:18.484Z,8.20
2023-04-03T11:13:17.255Z,12.65
2023-04-03T11:15:47.456Z,5.77
2023-04-03T11:18:39.234Z,4.68
2023-04-03T11:21:15.477Z,6.80
2023-04-03T11:24:03.763Z,11.57
2023-04-03T11:26:37.880Z,6.03
2023-04-03T11:29:15.891Z,6.32
2023-04-03T11:32:28.803Z,6.63
2023-04-03T11:35:00.231Z,5.30
2023-04-03T11:37:41.632Z,5.50
2023-04-03T11:40:20.970Z,4.57
2023-04-03T11:42:55.084Z,4.07
2023-04-03T11:45:27.978Z,5.20
2023-04-03T11:47:57.507Z,4.83
2023-04-03T11:50:36.580Z,8.05
2023-04-03T11:53:41.894Z,6.60
2023-04-03T11:56:27.011Z,6.15
2023-04-03T11:59:06.132Z,8.07
2023-04-03T12:01:55.482Z,7.57
2023-04-03T12:05:00.844Z,9.77
2023-04-03T12:07:27.627Z,6.37
2023-04-03T12:09:59.074Z,4.97
2023-04-03T12:12:30.823Z,5.03
2023-04-03T12:15:27.516Z,12.52
2023-04-03T12:17:54.808Z,3.60
2023-04-03T12:20:49.477Z,8.35
2023-04-03T12:23:34.641Z,5.30
2023-04-03T12:26:20.575Z,10.60
2023-04-03T12:28:49.553Z,6.28
2023-04-03T12:31:18.072Z,7.53
2023-04-03T12:34:04.647Z,5.00
2023-04-03T12:36:54.275Z,8.88
2023-04-03T12:39:37.444Z,8.35
2023-04-03T12:42:22.952Z,8.83
2023-04-03T12:45:20.018Z,8.00
2023-04-03T12:47:50.386Z,4.63
2023-04-03T12:50:33.879Z,5.38
2023-04-03T12:53:05.244Z,6.15
2023-04-03T12:55:32.387Z,7.05
2023-04-03T12:58:16.132Z,11.63
2023-04-03T13:00:43.011Z,9.13
2023-04-03T13:03:25.484Z,10.35
2023-04-03T13:05:52.364Z,4.80
2023-04-03T13:08:20.974Z,9.05
2023-04-03T13:11:03.954Z,6.37
2023-04-03T13:13:31.380Z,8.85
2023-04-03T13:15:58.778Z,4.25
2023-04-03T13:18:44.077Z,11.15
2023-04-03T13:21:26.042Z,7.43
2023-04-03T13:24:11.502Z,9.63
2023-04-03T13:26:42.945Z,2.92
2023-04-03T13:29:31.026Z,9.02
2023-04-03T13:32:00.982Z,10.68
2023-04-03T13:34:32.616Z,7.38
2023-04-03T13:37:02.293Z,6.88
2023-04-03T13:39:35.147Z,8.32
2023-04-03T13:42:16.883Z,8.15
2023-04-03T13:44:43.704Z,7.35
2023-04-03T13:47:13.440Z,12.25
2023-04-03T13:49:43.180Z,8.90
2023-04-03T13:52:41.749Z,6.88
2023-04-03T13:55:25.660Z,7.35
2023-04-03T13:58:21.953Z,7.45
2023-04-03T14:00:53.038Z,7.07
2023-04-03T14:03:29.647Z,5.00
2023-04-03T14:05:57.471Z,6.97
2023-04-03T14:08:36.067Z,9.83
2023-04-03T14:11:23.402Z,4.20
2023-04-03T14:13:51.719Z,7.30
2023-04-03T14:16:24.493Z,9.85
2023-04-03T14:18:52.455Z,6.55
2023-04-03T14:21:22.220Z,9.60
2023-04-03T14:23:49.716Z,7.10
2023-04-03T14:26:35.505Z,7.45
2023-04-03T14:29:02.271Z,12.18
2023-04-03T14:31:29.054Z,7.57
2023-04-03T14:33:55.959Z,9.73
2023-04-03T14:36:26.457Z,8.65
2023-04-03T14:38:54.793Z,10.95
2023-04-03T14:41:24.520Z,9.77
2023-04-03T14:43:51.909Z,5.82
2023-04-03T14:46:26.980Z,5.47
2023-04-03T14:48:57.470Z,5.18
2023-04-03T14:51:25.074Z,6.30
2023-04-03T14:53:52.621Z,5.05
2023-04-03T14:56:27.571Z,7.70
2023-04-03T14:58:58.324Z,6.20
2023-04-03T15:01:26.293Z,7.53
2023-04-03T15:03:53.508Z,15.02
2023-04-03T15:06:21.140Z,5.07
2023-04-03T15:08:48.956Z,10.30
2023-04-03T15:11:16.350Z,7.43
2023-04-03T15:13:43.099Z,6.80
2023-04-03T15:16:29.553Z,8.90
2023-04-03T15:18:56.424Z,10.98
2023-04-03T15:21:23.189Z,13.00
2023-04-03T15:23:49.905Z,7.10
2023-04-03T15:26:16.652Z,7.35
2023-04-03T15:28:44.938Z,7.25
2023-04-03T15:31:11.840Z,13.32
2023-04-03T15:33:57.513Z,12.73
2023-04-03T15:36:34.022Z,5.47
2023-04-03T15:39:02.121Z,6.45
2023-04-03T15:41:28.876Z,14.88
2023-04-03T15:43:55.943Z,9.95
2023-04-03T15:46:22.664Z,12.97
2023-04-03T15:48:50.637Z,10.15
2023-04-03T15:51:17.400Z,14.43
2023-04-03T15:53:44.366Z,13.35
2023-04-03T15:56:12.877Z,7.68
2023-04-03T15:58:39.812Z,16.55
2023-04-03T16:01:06.876Z,10.25
2023-04-03T16:03:33.849Z,6.70
2023-04-03T16:06:19.954Z,14.10
2023-04-03T16:09:05.832Z,7.30
2023-04-03T16:11:51.520Z,9.40
2023-04-03T16:14:36.834Z,9.32
2023-04-03T16:17:03.733Z,14.55
2023-04-03T16:19:31.449Z,11.07
2023-04-03T16:21:58.420Z,10.80
2023-04-03T16:24:25.375Z,6.93
2023-04-03T16:27:10.940Z,6.13
2023-04-03T16:29:37.790Z,12.45
2023-04-03T16:32:05.009Z,9.88
2023-04-03T16:34:33.304Z,10.35
2023-04-03T16:37:00.257Z,8.18
2023-04-03T16:39:27.475Z,6.18
2023-04-03T16:41:56.822Z,11.10
2023-04-03T16:44:42.457Z,12.32
2023-04-03T16:47:10.052Z,14.23
2023-04-03T16:49:36.895Z,4.75
2023-04-03T16:52:06.040Z,5.17
2023-04-03T16:54:33.236Z,12.90
2023-04-03T16:57:00.143Z,4.13
2023-04-03T16:59:27.160Z,11.35
2023-04-03T17:01:53.993Z,8.88
2023-04-03T17:04:20.864Z,8.23
2023-04-03T17:06:47.945Z,12.13
2023-04-03T17:09:15.045Z,10.35
2023-04-03T17:11:42.429Z,10.30
2023-04-03T17:14:09.924Z,7.45
2023-04-03T17:16:38.835Z,12.70
2023-04-03T17:19:05.963Z,9.00
2023-04-03T17:21:34.337Z,8.03
2023-04-03T17:24:04.385Z,10.40
2023-04-03T17:26:31.453Z,14.80
2023-04-03T17:28:58.273Z,7.90
2023-04-03T17:31:25.117Z,14.97
2023-04-03T17:33:52.055Z,8.65
2023-04-03T17:36:18.820Z,13.47
2023-04-03T17:38:45.651Z,8.63
2023-04-03T17:41:12.339Z,11.83
2023-04-03T17:43:39.108Z,12.87
2023-04-03T17:46:09.172Z,9.53
2023-04-03T17:48:38.317Z,8.23
2023-04-03T17:51:07.086Z,8.98
2023-04-03T17:53:33.841Z,10.80
2023-04-03T17:56:07.167Z,9.73
2023-04-03T17:58:34.096Z,6.40
2023-04-03T18:03:55.072Z,11.53
2023-04-03T18:06:26.590Z,13.77
2023-04-03T18:08:56.517Z,12.03
2023-04-03T18:11:27.458Z,12.77
2023-04-03T18:13:58.184Z,14.17
2023-04-03T18:16:26.254Z,9.50
2023-04-03T18:19:06.649Z,10.23
2023-04-03T18:24:49.058Z,16.80
2023-04-03T18:27:19.156Z,14.20
2023-04-03T18:29:50.505Z,14.40
2023-04-03T18:32:19.533Z,9.93
2023-04-03T18:34:46.352Z,12.80
2023-04-03T18:37:13.186Z,13.20
2023-04-03T18:39:39.948Z,14.97
2023-04-03T18:42:11.863Z,15.10
2023-04-03T18:44:40.656Z,10.50
2023-04-03T18:47:08.264Z,12.30
2023-04-03T18:49:38.024Z,14.67
2023-04-03T18:52:05.655Z,15.13
2023-04-03T18:54:32.828Z,16.03
2023-04-03T18:56:59.652Z,16.80
2023-04-03T18:59:27.493Z,12.03
2023-04-03T19:01:56.067Z,6.97
2023-04-03T19:04:23.863Z,8.80
2023-04-03T19:06:51.549Z,15.77
2023-04-03T19:09:18.356Z,23.90
2023-04-03T19:11:45.959Z,10.83
2023-04-03T19:14:16.627Z,15.03
2023-04-03T19:16:44.959Z,11.17
2023-04-03T19:19:12.596Z,12.10
2023-04-03T19:21:41.493Z,14.20
2023-04-03T19:24:10.578Z,9.67
2023-04-03T19:26:55.839Z,10.77
2023-04-03T19:29:22.585Z,16.67
2023-04-03T19:31:49.313Z,12.00
2023-04-03T19:34:16.241Z,20.57
2023-04-03T19:36:43.178Z,11.80
2023-04-03T19:39:10.032Z,9.47
2023-04-03T19:41:37.688Z,15.50
2023-04-03T19:44:07.303Z,12.17
2023-04-03T19:46:35.708Z,16.00
2023-04-03T19:49:03.024Z,12.07
2023-04-03T19:51:29.993Z,21.40
2023-04-03T19:53:56.922Z,18.80
2023-04-03T19:56:23.693Z,8.43
2023-04-03T19:58:56.970Z,16.50
2023-04-03T20:02:01.203Z,22.53
2023-04-03T20:04:28.116Z,21.43
2023-04-03T20:06:54.850Z,12.57
2023-04-03T20:09:22.271Z,21.70
2023-04-03T20:11:49.122Z,21.43
2023-04-03T20:17:01.437Z,9.60
2023-04-03T20:19:28.212Z,12.30
2023-04-03T20:22:13.635Z,11.93
2023-04-03T20:24:42.805Z,15.43
2023-04-03T20:27:09.625Z,11.47
2023-04-03T20:29:36.919Z,11.97
2023-04-03T20:32:04.659Z,15.23
2023-04-03T20:34:32.554Z,16.17
2023-04-03T20:36:59.758Z,21.13
2023-04-03T20:39:26.649Z,11.73
2023-04-03T20:41:53.483Z,14.37
2023-04-03T20:44:21.836Z,12.23
2023-04-03T20:46:53.097Z,21.50
2023-04-03T20:49:21.051Z,10.73
2023-04-03T20:51:48.049Z,14.33
2023-04-03T20:54:14.864Z,21.77
2023-04-03T20:56:41.652Z,21.20
2023-04-03T20:59:11.501Z,20.30
2023-04-03T21:01:38.619Z,23.93
2023-04-03T21:04:32.334Z,25.43
2023-04-03T21:07:38.925Z,15.10
2023-04-03T21:10:43.052Z,16.97
2023-04-03T21:13:47.157Z,26.73
2023-04-03T21:16:13.975Z,14.93
2023-04-03T21:18:55.165Z,19.00
2023-04-03T21:21:26.432Z,16.27
2023-04-03T21:23:55.015Z,23.37
2023-04-03T21:26:23.022Z,17.67
2023-04-03T21:28:54.055Z,23.20
2023-04-03T21:31:21.987Z,15.53
2023-04-03T21:33:49.345Z,14.00
2023-04-03T21:36:16.343Z,16.90
2023-04-03T21:38:45.330Z,14.83
2023-04-03T21:41:12.264Z,12.97
2023-04-03T21:43:38.975Z,15.37
2023-04-03T21:46:06.330Z,22.00
2023-04-03T21:48:33.184Z,16.60
2023-04-03T21:51:18.857Z,17.23
2023-04-03T21:53:45.908Z,11.33
2023-04-03T21:56:31.199Z,19.47
2023-04-03T21:59:00.942Z,12.13
2023-04-03T22:01:28.249Z,15.07
2023-04-03T22:03:58.488Z,14.60
2023-04-03T22:06:26.310Z,13.47
2023-04-03T22:08:53.243Z,20.13
2023-04-03T22:11:23.029Z,13.80
2023-04-03T22:13:53.095Z,23.20
2023-04-03T22:16:23.087Z,20.63
2023-04-03T22:18:52.123Z,14.97
2023-04-03T22:21:19.196Z,24.77
2023-04-03T22:23:45.951Z,11.37
2023-04-03T22:26:13.441Z,19.00
2023-04-03T22:28:42.441Z,23.87
2023-04-03T22:31:10.123Z,11.00
2023-04-03T22:33:37.798Z,21.20
2023-04-03T22:36:06.106Z,17.27
2023-04-03T22:38:51.845Z,20.83
2023-04-03T22:41:18.599Z,23.47
2023-04-03T22:43:45.292Z,16.53
2023-04-03T22:46:12.099Z,25.07
2023-04-03T22:48:42.424Z,15.87
2023-04-03T22:51:09.770Z,17.77
2023-04-03T22:53:36.972Z,15.03
2023-04-03T22:56:08.744Z,19.23
2023-04-03T22:58:35.675Z,20.80
2023-04-03T23:01:10.062Z,14.03
2023-04-03T23:03:38.230Z,17.17
2023-04-03T23:06:06.250Z,12.70
2023-04-03T23:08:35.068Z,13.33
2023-04-03T23:11:02.539Z,14.63
2023-04-03T23:13:29.858Z,17.67
2023-04-03T23:16:01.530Z,16.43
2023-04-03T23:18:29.790Z,23.47
2023-04-03T23:20:58.625Z,22.20
2023-04-03T23:23:25.848Z,20.67
2023-04-03T23:25:53.467Z,18.30
2023-04-03T23:28:20.324Z,21.40
2023-04-03T23:30:47.644Z,16.73
2023-04-03T23:33:14.618Z,20.47
2023-04-03T23:35:47.936Z,13.20
2023-04-03T23:38:15.634Z,22.13
2023-04-03T23:40:42.942Z,19.73
2023-04-03T23:43:09.874Z,12.83
2023-04-03T23:45:36.795Z,18.57
2023-04-03T23:48:03.972Z,18.20
2023-04-03T23:50:31.202Z,15.67
2023-04-03T23:52:58.061Z,23.43
2023-04-03T23:55:24.774Z,22.57
2023-04-03T23:57:51.968Z,14.17
